< < Back
Terminal Aerodrome Forecast


Current Version              Previous Versions:   1  2  3  4  5  6  7  8  9  

Terminal Aerodrome Forecast

760
FTUS42 KMLB 281700
TAFMCO
TAF
KMCO 281738Z 2818/2918 02011KT P6SM SKC
     FM290000 36007KT P6SM SKC=

Latest METAR

687
SAUS70 KWBC 290800 RRC
MTRMCO
METAR KMCO 290753Z 35007KT 10SM CLR 09/07 A3026 RMK AO2 SLP247
T00890067


USA.gov is the U.S. government's official web portal to all federal, state and local government web resources and services.